createdAt,value
2023-01-13T00:01:58.472Z,97440.53
2023-01-13T00:04:29.098Z,97453.78
2023-01-13T00:06:59.687Z,97457.03
2023-01-13T00:09:30.141Z,97450.53
2023-01-13T00:12:00.680Z,97452.88
2023-01-13T00:14:37.021Z,97458.81
2023-01-13T00:17:07.877Z,97451.53
2023-01-13T00:19:38.349Z,97452.66
2023-01-13T00:22:09.538Z,97455.91
2023-01-13T00:24:39.972Z,97461.41
2023-01-13T00:27:10.576Z,97451.72
2023-01-13T00:29:44.024Z,97456.59
2023-01-13T00:32:15.738Z,97455.19
2023-01-13T00:34:46.161Z,97453.78
2023-01-13T00:37:16.818Z,97460.13
2023-01-13T00:39:47.246Z,97449.13
2023-01-13T00:42:30.396Z,97442.56
2023-01-13T00:45:03.979Z,97444.97
2023-01-13T00:47:36.025Z,97445.94
2023-01-13T00:50:06.641Z,97442.84
2023-01-13T00:52:37.491Z,97439.13
2023-01-13T00:55:09.106Z,97446.50
2023-01-13T00:57:40.284Z,97443.91
2023-01-13T01:00:15.349Z,97438.03
2023-01-13T01:02:45.925Z,97429.66
2023-01-13T01:05:16.532Z,97430.97
2023-01-13T01:07:47.203Z,97435.13
2023-01-13T01:10:18.021Z,97437.19
2023-01-13T01:12:48.571Z,97420.19
2023-01-13T01:15:21.793Z,97432.22
2023-01-13T01:17:52.429Z,97429.53
2023-01-13T01:20:22.988Z,97432.50
2023-01-13T01:22:53.557Z,97425.78
2023-01-13T01:25:24.051Z,97436.25
2023-01-13T01:27:54.628Z,97432.88
2023-01-13T01:30:27.769Z,97429.69
2023-01-13T01:32:58.401Z,97425.03
2023-01-13T01:35:28.940Z,97437.06
2023-01-13T01:37:59.501Z,97435.47
2023-01-13T01:40:30.770Z,97435.09
2023-01-13T01:43:13.713Z,97426.06
2023-01-13T01:45:46.755Z,97430.06
2023-01-13T01:48:17.691Z,97421.66
2023-01-13T01:50:48.423Z,97430.44
2023-01-13T01:53:22.480Z,97424.97
2023-01-13T01:55:53.763Z,97426.53
2023-01-13T01:58:28.987Z,97424.53
2023-01-13T02:01:02.631Z,97419.03
2023-01-13T02:03:33.390Z,97423.25
2023-01-13T02:06:04.164Z,97418.69
2023-01-13T02:08:34.750Z,97423.84
2023-01-13T02:11:05.231Z,97420.41
2023-01-13T02:13:33.230Z,97420.53
2023-01-13T02:16:14.848Z,97419.78
2023-01-13T02:18:59.343Z,97423.44
2023-01-13T02:22:02.778Z,97420.09
2023-01-13T02:24:59.649Z,97422.19
2023-01-13T02:27:52.338Z,97418.06
2023-01-13T02:31:09.626Z,97417.75
2023-01-13T02:33:42.346Z,97411.97
2023-01-13T02:36:20.979Z,97411.66
2023-01-13T02:38:57.579Z,97410.47
2023-01-13T02:41:45.788Z,97413.72
2023-01-13T02:44:19.794Z,97401.78
2023-01-13T02:47:00.838Z,97413.91
2023-01-13T02:49:37.324Z,97416.28
2023-01-13T02:52:14.146Z,97421.22
2023-01-13T02:54:50.964Z,97433.19
2023-01-13T02:57:23.690Z,97425.31
2023-01-13T02:59:58.972Z,97426.97
2023-01-13T03:02:32.087Z,97424.34
2023-01-13T03:05:03.657Z,97431.16
2023-01-13T03:08:06.759Z,97419.84
2023-01-13T03:10:50.797Z,97436.09
2023-01-13T03:13:36.503Z,97434.19
2023-01-13T03:16:18.510Z,97422.13
2023-01-13T03:19:00.462Z,97433.22
2023-01-13T03:21:38.901Z,97432.41
2023-01-13T03:24:16.192Z,97433.13
2023-01-13T03:26:51.725Z,97429.53
2023-01-13T03:29:24.322Z,97425.13
2023-01-13T03:32:01.117Z,97424.19
2023-01-13T03:34:38.404Z,97423.38
2023-01-13T03:37:11.462Z,97418.94
2023-01-13T03:39:47.063Z,97416.09
2023-01-13T03:42:22.190Z,97423.00
2023-01-13T03:44:55.797Z,97422.06
2023-01-13T03:47:31.941Z,97429.94
2023-01-13T03:50:08.505Z,97431.63
2023-01-13T03:52:43.548Z,97433.31
2023-01-13T03:55:18.836Z,97436.75
2023-01-13T03:57:56.404Z,97430.56
2023-01-13T04:00:31.491Z,97433.19
2023-01-13T04:03:07.998Z,97438.34
2023-01-13T04:05:46.440Z,97434.75
2023-01-13T04:08:23.127Z,97432.13
2023-01-13T04:10:58.241Z,97439.91
2023-01-13T04:13:33.186Z,97440.72
2023-01-13T04:16:04.317Z,97437.28
2023-01-13T04:18:34.908Z,97439.66
2023-01-13T04:21:09.044Z,97443.13
2023-01-13T04:23:39.615Z,97440.59
2023-01-13T04:26:10.179Z,97446.72
2023-01-13T04:28:41.046Z,97443.97
2023-01-13T04:31:11.655Z,97455.41
2023-01-13T04:33:42.422Z,97451.97
2023-01-13T04:36:15.997Z,97458.88
2023-01-13T04:38:46.739Z,97458.88
2023-01-13T04:41:17.390Z,97454.47
2023-01-13T04:43:47.928Z,97451.47
2023-01-13T04:46:18.726Z,97444.31
2023-01-13T04:48:49.397Z,97453.00
2023-01-13T04:51:22.892Z,97458.22
2023-01-13T04:53:53.464Z,97455.78
2023-01-13T04:56:24.076Z,97457.63
2023-01-13T04:58:54.676Z,97460.66
2023-01-13T05:01:25.365Z,97461.16
2023-01-13T05:03:56.084Z,97465.44
2023-01-13T05:06:29.380Z,97473.94
2023-01-13T05:09:00.435Z,97471.78
2023-01-13T05:11:43.254Z,97473.81
2023-01-13T05:14:26.199Z,97474.38
2023-01-13T05:17:04.764Z,97468.16
2023-01-13T05:19:39.399Z,97464.41
2023-01-13T05:22:24.869Z,97468.50
2023-01-13T05:25:22.632Z,97473.19
2023-01-13T05:27:54.057Z,97470.22
2023-01-13T05:30:25.751Z,97468.31
2023-01-13T05:32:56.579Z,97478.59
2023-01-13T05:35:29.309Z,97478.50
2023-01-13T05:38:02.547Z,97475.59
2023-01-13T05:40:45.372Z,97469.97
2023-01-13T05:43:24.941Z,97471.19
2023-01-13T05:45:59.863Z,97470.88
2023-01-13T05:48:32.532Z,97474.91
2023-01-13T05:51:03.305Z,97473.81
2023-01-13T05:53:37.331Z,97475.41
2023-01-13T05:56:08.922Z,97471.03
2023-01-13T05:58:39.525Z,97482.34
2023-01-13T06:01:13.685Z,97481.72
2023-01-13T06:03:44.311Z,97480.03
2023-01-13T06:06:14.832Z,97488.22
2023-01-13T06:08:48.054Z,97482.56
2023-01-13T06:11:18.497Z,97490.63
2023-01-13T06:13:49.052Z,97492.84
2023-01-13T06:16:19.725Z,97489.88
2023-01-13T06:18:50.311Z,97504.16
2023-01-13T06:21:20.839Z,97481.81
2023-01-13T06:23:53.967Z,97503.50
2023-01-13T06:26:28.027Z,97507.69
2023-01-13T06:28:58.576Z,97508.91
2023-01-13T06:31:29.701Z,97506.00
2023-01-13T06:34:02.652Z,97503.88
2023-01-13T06:36:38.782Z,97505.34
2023-01-13T06:39:14.632Z,97511.19
2023-01-13T06:41:57.432Z,97501.34
2023-01-13T06:44:28.209Z,97503.72
2023-01-13T06:46:58.696Z,97502.53
2023-01-13T06:49:29.525Z,97503.41
2023-01-13T06:52:00.130Z,97497.91
2023-01-13T06:54:34.789Z,97495.19
2023-01-13T06:57:05.640Z,97503.69
2023-01-13T06:59:36.951Z,97504.50
2023-01-13T07:02:07.521Z,97505.25
2023-01-13T07:04:38.204Z,97512.78
2023-01-13T07:07:08.859Z,97514.34
2023-01-13T07:09:42.311Z,97516.75
2023-01-13T07:12:12.818Z,97520.94
2023-01-13T07:14:55.686Z,97521.78
2023-01-13T07:17:27.115Z,97521.56
2023-01-13T07:19:58.270Z,97523.25
2023-01-13T07:22:28.739Z,97524.91
2023-01-13T07:25:01.919Z,97507.91
2023-01-13T07:27:33.888Z,97520.50
2023-01-13T07:30:04.540Z,97518.94
2023-01-13T07:32:36.483Z,97525.13
2023-01-13T07:35:08.178Z,97530.50
2023-01-13T07:37:40.636Z,97533.13
2023-01-13T07:40:15.167Z,97530.38
2023-01-13T07:42:57.947Z,97534.69
2023-01-13T07:45:29.626Z,97528.25
2023-01-13T07:48:00.199Z,97529.97
2023-01-13T07:50:30.878Z,97533.19
2023-01-13T07:53:01.484Z,97534.00
2023-01-13T07:55:34.976Z,97530.34
2023-01-13T07:58:05.752Z,97541.47
2023-01-13T08:00:36.408Z,97538.84
2023-01-13T08:03:07.604Z,97538.09
2023-01-13T08:05:38.757Z,97537.03
2023-01-13T08:08:09.494Z,97546.25
2023-01-13T08:10:42.634Z,97548.66
2023-01-13T08:13:22.917Z,97550.34
2023-01-13T08:15:55.066Z,97545.81
2023-01-13T08:18:25.815Z,97551.78
2023-01-13T08:20:57.831Z,97557.91
2023-01-13T08:23:28.344Z,97560.53
2023-01-13T08:26:03.439Z,97559.47
2023-01-13T08:28:34.638Z,97558.50
2023-01-13T08:31:06.904Z,97551.56
2023-01-13T08:33:37.853Z,97551.34
2023-01-13T08:36:09.675Z,97557.13
2023-01-13T08:38:41.163Z,97567.38
2023-01-13T08:41:15.966Z,97555.56
2023-01-13T08:43:46.478Z,97563.94
2023-01-13T08:46:17.089Z,97559.09
2023-01-13T08:48:47.517Z,97553.38
2023-01-13T08:51:20.299Z,97549.31
2023-01-13T08:53:50.879Z,97557.47
2023-01-13T08:56:24.248Z,97551.72
2023-01-13T08:58:55.645Z,97547.22
2023-01-13T09:01:27.112Z,97554.63
2023-01-13T09:03:58.212Z,97548.19
2023-01-13T09:06:28.869Z,97541.03
2023-01-13T09:08:59.356Z,97539.00
2023-01-13T09:11:47.088Z,97542.47
2023-01-13T09:14:21.008Z,97536.00
2023-01-13T09:16:51.654Z,97528.72
2023-01-13T09:19:22.152Z,97531.22
2023-01-13T09:21:53.061Z,97528.72
2023-01-13T09:24:24.268Z,97522.13
2023-01-13T09:26:57.499Z,97524.53
2023-01-13T09:29:28.132Z,97528.59
2023-01-13T09:31:59.441Z,97526.56
2023-01-13T09:34:42.822Z,97527.25
2023-01-13T09:37:13.295Z,97525.97
2023-01-13T09:39:43.749Z,97525.72
2023-01-13T09:42:39.157Z,97524.66
2023-01-13T09:45:15.053Z,97519.97
2023-01-13T09:47:56.073Z,97519.75
2023-01-13T09:50:34.885Z,97519.50
2023-01-13T09:53:05.679Z,97503.44
2023-01-13T09:55:38.562Z,97503.81
2023-01-13T09:58:17.014Z,97496.25
2023-01-13T10:00:54.996Z,97493.97
2023-01-13T10:03:29.059Z,97490.75
2023-01-13T10:06:07.069Z,97495.50
2023-01-13T10:08:40.984Z,97485.81
2023-01-13T10:11:30.673Z,97493.56
2023-01-13T10:14:06.008Z,97490.56
2023-01-13T10:16:43.958Z,97482.38
2023-01-13T10:19:20.568Z,97489.91
2023-01-13T10:22:18.513Z,97485.09
2023-01-13T10:25:12.103Z,97489.16
2023-01-13T10:27:47.074Z,97482.81
2023-01-13T10:30:31.363Z,97476.44
2023-01-13T10:33:04.115Z,97481.47
2023-01-13T10:35:52.988Z,97476.78
2023-01-13T10:38:25.959Z,97468.75
2023-01-13T10:40:58.152Z,97475.44
2023-01-13T10:43:29.821Z,97464.59
2023-01-13T10:46:06.623Z,97463.53
2023-01-13T10:48:40.282Z,97466.88
2023-01-13T10:51:21.528Z,97468.41
2023-01-13T10:54:03.759Z,97467.31
2023-01-13T10:56:36.127Z,97463.59
2023-01-13T10:59:17.144Z,97459.97
2023-01-13T11:02:13.131Z,97457.81
2023-01-13T11:05:21.335Z,97454.22
2023-01-13T11:07:56.516Z,97460.19
2023-01-13T11:10:28.986Z,97455.88
2023-01-13T11:13:08.853Z,97461.03
2023-01-13T11:15:46.610Z,97450.84
2023-01-13T11:18:31.654Z,97447.28
2023-01-13T11:21:03.470Z,97449.06
2023-01-13T11:23:40.247Z,97445.31
2023-01-13T11:26:20.086Z,97443.38
2023-01-13T11:28:55.245Z,97438.72
2023-01-13T11:31:30.995Z,97434.84
2023-01-13T11:34:11.056Z,97429.28
2023-01-13T11:36:46.851Z,97428.19
2023-01-13T11:39:24.953Z,97422.53
2023-01-13T11:42:14.941Z,97419.63
2023-01-13T11:44:52.205Z,97407.13
2023-01-13T11:47:26.771Z,97409.41
2023-01-13T11:50:00.091Z,97408.28
2023-01-13T11:52:46.515Z,97408.16
2023-01-13T11:55:29.468Z,97414.97
2023-01-13T11:58:17.835Z,97412.22
2023-01-13T12:01:05.996Z,97414.13
2023-01-13T12:03:42.570Z,97409.56
2023-01-13T12:06:24.646Z,97407.75
2023-01-13T12:09:16.844Z,97397.06
2023-01-13T12:12:14.733Z,97398.28
2023-01-13T12:14:56.320Z,97394.69
2023-01-13T12:17:36.230Z,97403.31
2023-01-13T12:20:24.473Z,97404.97
2023-01-13T12:23:02.373Z,97407.63
2023-01-13T12:25:37.732Z,97407.63
2023-01-13T12:28:09.982Z,97399.69
2023-01-13T12:30:47.069Z,97398.16
2023-01-13T12:33:32.821Z,97400.94
2023-01-13T12:36:09.217Z,97413.56
2023-01-13T12:38:49.549Z,97412.03
2023-01-13T12:41:39.029Z,97411.44
2023-01-13T12:44:18.470Z,97422.16
2023-01-13T12:46:56.123Z,97413.38
2023-01-13T12:49:32.534Z,97416.03
2023-01-13T12:52:17.944Z,97421.31
2023-01-13T12:55:22.742Z,97417.00
2023-01-13T12:58:01.885Z,97419.50
2023-01-13T13:00:38.809Z,97417.81
2023-01-13T13:03:30.802Z,97412.53
2023-01-13T13:06:13.006Z,97428.81
2023-01-13T13:08:53.938Z,97426.16
2023-01-13T13:11:54.759Z,97423.41
2023-01-13T13:14:55.071Z,97421.59
2023-01-13T13:17:47.022Z,97423.28
2023-01-13T13:20:47.616Z,97428.56
2023-01-13T13:23:50.937Z,97429.53
2023-01-13T13:26:39.157Z,97429.66
2023-01-13T13:29:24.846Z,97430.88
2023-01-13T13:32:14.107Z,97435.34
2023-01-13T13:34:52.426Z,97437.97
2023-01-13T13:37:58.275Z,97438.78
2023-01-13T13:40:41.750Z,97436.88
2023-01-13T13:43:30.465Z,97438.41
2023-01-13T13:46:13.480Z,97433.13
2023-01-13T13:48:54.655Z,97431.19
2023-01-13T13:51:31.246Z,97433.81
2023-01-13T13:54:02.974Z,97428.69
2023-01-13T13:56:38.821Z,97437.44
2023-01-13T13:59:14.248Z,97433.81
2023-01-13T14:01:46.911Z,97437.44
2023-01-13T14:04:22.272Z,97434.09
2023-01-13T14:06:54.347Z,97429.91
2023-01-13T14:09:28.787Z,97433.53
2023-01-13T14:12:01.539Z,97427.56
2023-01-13T14:14:34.841Z,97436.88
2023-01-13T14:17:08.029Z,97429.09
2023-01-13T14:19:44.426Z,97434.09
2023-01-13T14:22:19.495Z,97429.66
2023-01-13T14:24:55.659Z,97433.13
2023-01-13T14:27:28.234Z,97433.41
2023-01-13T14:30:04.023Z,97437.56
2023-01-13T14:32:38.206Z,97434.09
2023-01-13T14:35:10.683Z,97437.00
2023-01-13T14:37:44.242Z,97437.25
2023-01-13T14:40:47.712Z,97442.53
2023-01-13T14:43:21.282Z,97449.59
2023-01-13T14:46:03.295Z,97452.41
2023-01-13T14:48:36.271Z,97445.97
2023-01-13T14:51:10.759Z,97454.06
2023-01-13T14:53:46.423Z,97458.38
2023-01-13T14:56:42.966Z,97457.38
2023-01-13T14:59:43.362Z,97457.38
2023-01-13T15:02:43.422Z,97462.09
2023-01-13T15:05:34.021Z,97467.25
2023-01-13T15:08:09.446Z,97454.31
2023-01-13T15:10:48.668Z,97462.94
2023-01-13T15:13:42.601Z,97463.19
2023-01-13T15:16:22.354Z,97460.13
2023-01-13T15:18:55.829Z,97463.84
2023-01-13T15:21:26.829Z,97478.16
2023-01-13T15:23:57.391Z,97462.81
2023-01-13T15:26:29.976Z,97467.97
2023-01-13T15:29:01.811Z,97471.56
2023-01-13T15:31:32.491Z,97468.09
2023-01-13T15:34:05.586Z,97466.44
2023-01-13T15:36:38.119Z,97473.50
2023-01-13T15:39:09.934Z,97476.13
2023-01-13T15:41:52.765Z,97475.31
2023-01-13T15:44:35.611Z,97478.75
2023-01-13T15:47:09.926Z,97483.09
2023-01-13T15:49:45.451Z,97482.25
2023-01-13T15:52:22.983Z,97475.19
2023-01-13T15:54:54.547Z,97483.22
2023-01-13T15:57:27.787Z,97477.22
2023-01-13T16:00:00.706Z,97476.53
2023-01-13T16:02:31.529Z,97476.53
2023-01-13T16:05:04.826Z,97482.78
2023-01-13T16:07:35.747Z,97482.78
2023-01-13T16:10:07.554Z,97479.97
2023-01-13T16:12:38.273Z,97477.34
2023-01-13T16:15:09.730Z,97475.56
2023-01-13T16:17:40.791Z,97473.88
2023-01-13T16:20:19.783Z,97472.22
2023-01-13T16:22:50.367Z,97474.59
2023-01-13T16:25:23.383Z,97471.13
2023-01-13T16:27:54.724Z,97471.94
2023-01-13T16:30:29.386Z,97468.63
2023-01-13T16:33:00.674Z,97459.16
2023-01-13T16:35:35.535Z,97464.81
2023-01-13T16:38:19.512Z,97463.41
2023-01-13T16:40:52.489Z,97461.72
2023-01-13T16:43:23.271Z,97463.78
2023-01-13T16:45:53.958Z,97460.44
2023-01-13T16:48:24.714Z,97457.91
2023-01-13T16:50:58.288Z,97459.88
2023-01-13T16:53:29.142Z,97450.28
2023-01-13T16:55:59.713Z,97454.97
2023-01-13T16:58:30.526Z,97450.66
2023-01-13T17:01:01.300Z,97447.22
2023-01-13T17:03:36.081Z,97439.28
2023-01-13T17:06:09.994Z,97443.97
2023-01-13T17:08:40.852Z,97443.28
2023-01-13T17:11:11.407Z,97442.69
2023-01-13T17:13:42.209Z,97432.53
2023-01-13T17:16:20.503Z,97435.38
2023-01-13T17:18:52.036Z,97436.94
2023-01-13T17:21:25.546Z,97436.28
2023-01-13T17:23:56.289Z,97430.22
2023-01-13T17:26:37.448Z,97436.22
2023-01-13T17:29:09.127Z,97431.13
2023-01-13T17:31:39.965Z,97439.38
2023-01-13T17:34:15.176Z,97435.41
2023-01-13T17:36:48.984Z,97431.69
2023-01-13T17:39:21.828Z,97441.00
2023-01-13T17:41:52.841Z,97438.56
2023-01-13T17:44:26.631Z,97437.59
2023-01-13T17:46:57.109Z,97453.59
2023-01-13T17:49:27.928Z,97450.25
2023-01-13T17:52:01.184Z,97446.72
2023-01-13T17:54:31.796Z,97446.34
2023-01-13T17:57:02.354Z,97451.31
2023-01-13T17:59:33.099Z,97445.22
2023-01-13T18:02:03.968Z,97451.06
2023-01-13T18:04:35.029Z,97452.13
2023-01-13T18:07:08.591Z,97452.78
2023-01-13T18:09:40.111Z,97442.00
2023-01-13T18:12:10.985Z,97439.78
2023-01-13T18:14:42.033Z,97442.09
2023-01-13T18:17:12.922Z,97433.59
2023-01-13T18:19:55.882Z,97445.81
2023-01-13T18:22:41.317Z,97448.06
2023-01-13T18:25:27.601Z,97454.13
2023-01-13T18:27:59.154Z,97450.78
2023-01-13T18:30:29.971Z,97451.19
2023-01-13T18:33:01.053Z,97455.13
2023-01-13T18:35:32.155Z,97452.78
2023-01-13T18:38:07.681Z,97464.25
2023-01-13T18:40:39.103Z,97459.41
2023-01-13T18:43:07.321Z,97461.25
2023-01-13T18:45:38.045Z,97465.38
2023-01-13T18:48:09.235Z,97459.81
2023-01-13T18:50:39.773Z,97464.59
2023-01-13T18:53:13.991Z,97464.16
2023-01-13T18:55:45.303Z,97458.34
2023-01-13T18:58:16.184Z,97460.97
2023-01-13T19:00:47.489Z,97450.22
2023-01-13T19:03:29.538Z,97464.47
2023-01-13T19:06:06.326Z,97457.00
2023-01-13T19:08:39.585Z,97455.66
2023-01-13T19:11:10.539Z,97458.41
2023-01-13T19:13:42.001Z,97456.66
2023-01-13T19:16:13.574Z,97459.78
2023-01-13T19:18:44.989Z,97456.28
2023-01-13T19:21:15.728Z,97441.44
2023-01-13T19:23:49.272Z,97443.03
2023-01-13T19:26:20.348Z,97442.97
2023-01-13T19:28:51.481Z,97450.38
2023-01-13T19:31:22.257Z,97441.97
2023-01-13T19:33:52.991Z,97439.38
2023-01-13T19:36:23.541Z,97436.66
2023-01-13T19:38:56.917Z,97446.44
2023-01-13T19:41:40.653Z,97450.88
2023-01-13T19:44:26.661Z,97453.66
2023-01-13T19:46:57.523Z,97443.53
2023-01-13T19:49:28.608Z,97439.97
2023-01-13T19:51:59.442Z,97446.16
2023-01-13T19:54:32.860Z,97447.56
2023-01-13T19:57:03.506Z,97453.47
2023-01-13T19:59:36.819Z,97451.00
2023-01-13T20:02:10.001Z,97451.59
2023-01-13T20:04:46.087Z,97444.59
2023-01-13T20:07:17.057Z,97452.66
2023-01-13T20:09:50.455Z,97441.88
2023-01-13T20:12:22.807Z,97443.81
2023-01-13T20:14:53.883Z,97444.59
2023-01-13T20:17:26.415Z,97444.53
2023-01-13T20:19:58.310Z,97445.22
2023-01-13T20:22:28.893Z,97441.69
2023-01-13T20:25:02.401Z,97445.25
2023-01-13T20:27:34.127Z,97446.09
2023-01-13T20:30:04.796Z,97449.75
2023-01-13T20:32:35.424Z,97450.78
2023-01-13T20:35:06.300Z,97450.28
2023-01-13T20:37:36.837Z,97451.31
2023-01-13T20:40:13.573Z,97446.69
2023-01-13T20:42:45.606Z,97446.03
2023-01-13T20:45:21.022Z,97452.53
2023-01-13T20:47:52.221Z,97443.53
2023-01-13T20:50:23.173Z,97440.34
2023-01-13T20:52:53.821Z,97440.75
2023-01-13T20:55:27.181Z,97444.84
2023-01-13T20:57:57.794Z,97449.88
2023-01-13T21:00:29.973Z,97448.91
2023-01-13T21:03:00.559Z,97448.19
2023-01-13T21:05:31.270Z,97459.63
2023-01-13T21:08:01.915Z,97456.09
2023-01-13T21:10:35.685Z,97445.94
2023-01-13T21:13:18.830Z,97439.16
2023-01-13T21:15:51.175Z,97439.03
2023-01-13T21:18:34.081Z,97427.22
2023-01-13T21:21:11.867Z,97426.56
2023-01-13T21:23:43.049Z,97427.22
2023-01-13T21:26:19.767Z,97417.34
2023-01-13T21:28:50.696Z,97416.97
2023-01-13T21:31:21.364Z,97422.78
2023-01-13T21:33:56.249Z,97421.13
2023-01-13T21:36:26.866Z,97414.31
2023-01-13T21:38:58.610Z,97415.47
2023-01-13T21:41:44.211Z,97405.06
2023-01-13T21:44:30.359Z,97406.25
2023-01-13T21:47:13.339Z,97405.22
2023-01-13T21:49:44.627Z,97403.81
2023-01-13T21:52:15.750Z,97392.66
2023-01-13T21:54:58.383Z,97399.09
2023-01-13T21:57:31.678Z,97389.53
2023-01-13T22:00:02.296Z,97384.94
2023-01-13T22:02:36.825Z,97392.06
2023-01-13T22:05:10.409Z,97388.16
2023-01-13T22:07:42.352Z,97387.88
2023-01-13T22:10:16.445Z,97381.00
2023-01-13T22:12:50.024Z,97370.66
2023-01-13T22:15:21.116Z,97380.66
2023-01-13T22:17:55.095Z,97371.75
2023-01-13T22:20:26.081Z,97373.38
2023-01-13T22:22:56.798Z,97372.22
2023-01-13T22:25:27.452Z,97370.31
2023-01-13T22:28:03.982Z,97369.47
2023-01-13T22:30:34.844Z,97360.03
2023-01-13T22:33:05.465Z,97359.25
2023-01-13T22:35:36.162Z,97363.66
2023-01-13T22:38:06.814Z,97355.22
2023-01-13T22:40:37.452Z,97358.13
2023-01-13T22:43:10.629Z,97355.81
2023-01-13T22:45:41.376Z,97355.34
2023-01-13T22:48:12.431Z,97342.63
2023-01-13T22:50:44.113Z,97353.50
2023-01-13T22:53:14.708Z,97349.59
2023-01-13T22:55:45.299Z,97348.34
2023-01-13T22:58:18.525Z,97358.38
2023-01-13T23:00:49.415Z,97356.22
2023-01-13T23:03:20.121Z,97355.06
2023-01-13T23:05:50.754Z,97351.25
2023-01-13T23:08:21.449Z,97343.16
2023-01-13T23:10:51.964Z,97345.44
2023-01-13T23:13:25.130Z,97349.59
2023-01-13T23:15:56.015Z,97345.81
2023-01-13T23:18:28.480Z,97340.44
2023-01-13T23:20:59.019Z,97342.00
2023-01-13T23:23:29.644Z,97341.28
2023-01-13T23:26:00.226Z,97340.22
2023-01-13T23:28:33.721Z,97344.50
2023-01-13T23:31:09.900Z,97337.59
2023-01-13T23:33:41.502Z,97334.00
2023-01-13T23:36:15.206Z,97336.53
2023-01-13T23:38:46.538Z,97326.03
2023-01-13T23:41:19.328Z,97330.44
2023-01-13T23:43:56.720Z,97332.94
2023-01-13T23:46:28.313Z,97339.03
2023-01-13T23:48:58.999Z,97341.53
2023-01-13T23:51:30.338Z,97344.03
2023-01-13T23:54:01.499Z,97342.84
2023-01-13T23:56:35.164Z,97351.41
2023-01-13T23:59:08.517Z,97349.69
